US-0026 weather

Tims Angus Farm Airport
La Fargeville, New York, United States

Public forecast

Using degrees Fahrenheit for public forecast. Weather courtesy of forecast.io.

Closest aviation weather report (METAR) to Tims Angus Farm Airport

Closest report is Wheeler Sack Army Air Field, 11.8 nm (21.9 km) SE. Retrieved 2020/01/23 00:56 UTC (1 hour ago):

KGTB 230056Z AUTO 15010KT 10SM OVC190 M03/M08 A3029 RMK AO2 SLP268 T10261085

Closest aviation forecast (TAF) to Tims Angus Farm Airport

Closest forecast is Wheeler Sack Army Air Field, 11.8 nm (21.9 km) SE. Retrieved 2020-01-23 01:27 UTC (29 minutes ago):

TAF KGTB 230100Z 2301/2407 20006KT 9999 FEW200 QNH3029INS TX00/2320Z TNM06/2312Z